Time;durP1;ratioP1;P1;durP2;ratioP2;P2;SDS_P1;SDS_P2;PMS_P1;PMS_P2;Temp;Humidity;BMP_temperature;BMP_pressure;BME280_temperature;BME280_humidity;BME280_pressure;Samples;Min_cycle;Max_cycle;Signal;HPM_P1;HPM_P2
2023/10/08 00:03:34;;;;;;;1.23;1.08;;;;;;;;;;6192831;28;20468;-77
2023/10/08 00:06:34;;;;;;;1.53;1.10;;;;;;;;;;6196181;28;20037;-76
2023/10/08 00:09:37;;;;;;;1.40;1.10;;;;;;;;;;6198696;28;20387;-77
2023/10/08 00:12:38;;;;;;;2.67;1.30;;;;;;;;;;6190409;28;20023;-76
2023/10/08 00:15:41;;;;;;;;;;;;;;;;;;6184852;28;20057;-76
2023/10/08 00:18:48;;;;;;;2.05;1.00;;;;;;;;;;6189302;28;19920;-76
2023/10/08 00:21:49;;;;;;;2.15;1.17;;;;;;;;;;6171154;28;20134;-77
2023/10/08 00:24:54;;;;;;;2.47;1.10;;;;;;;;;;6174006;28;20041;-76
2023/10/08 00:27:55;;;;;;;2.33;1.20;;;;;;;;;;6174410;28;20379;-76
2023/10/08 00:30:55;;;;;;;;;;;;;;;;;;6186045;28;20023;-77
2023/10/08 00:33:56;;;;;;;1.03;0.70;;;;;;;;;;6189943;28;19917;-76
2023/10/08 00:36:57;;;;;;;1.73;1.10;;;;;;;;;;6184473;28;20014;-77
2023/10/08 00:39:58;;;;;;;1.27;0.90;;;;;;;;;;6174857;28;20031;-77
2023/10/08 00:42:58;;;;;;;1.98;1.27;;;;;;;;;;6172427;28;20027;-77
2023/10/08 00:45:59;;;;;;;3.40;1.10;;;;;;;;;;6169179;28;20063;-77
2023/10/08 00:49:17;;;;;;;3.75;1.30;;;;;;;;;;6174085;28;20537;-76
2023/10/08 00:52:26;;;;;;;1.90;1.23;;;;;;;;;;6168959;28;20035;-76
2023/10/08 00:55:30;;;;;;;1.63;1.20;;;;;;;;;;6174800;28;20160;-77
2023/10/08 00:58:34;;;;;;;1.90;1.30;;;;;;;;;;6171828;28;20027;-77
2023/10/08 01:01:35;;;;;;;1.20;0.90;;;;;;;;;;6174774;28;20672;-77
2023/10/08 01:04:37;;;;;;;1.60;1.10;;;;;;;;;;6171024;28;20027;-77
2023/10/08 01:07:40;;;;;;;1.52;1.30;;;;;;;;;;6167199;28;20498;-76
2023/10/08 01:10:43;;;;;;;2.60;1.27;;;;;;;;;;6165973;28;20045;-76
2023/10/08 01:13:45;;;;;;;1.50;1.13;;;;;;;;;;6179158;28;20018;-76
2023/10/08 01:16:46;;;;;;;3.60;1.52;;;;;;;;;;6163689;28;20026;-77
2023/10/08 01:19:54;;;;;;;1.00;0.80;;;;;;;;;;6168788;28;20030;-76
2023/10/08 01:22:57;;;;;;;2.50;1.00;;;;;;;;;;6170437;28;20108;-77
2023/10/08 01:26:12;;;;;;;2.55;1.35;;;;;;;;;;6174450;28;20118;-75
2023/10/08 01:29:19;;;;;;;1.95;0.98;;;;;;;;;;6187210;28;20046;-76
2023/10/08 01:32:20;;;;;;;1.95;1.20;;;;;;;;;;6179197;28;20030;-76
2023/10/08 01:35:23;;;;;;;1.77;1.02;;;;;;;;;;6178157;28;20034;-76
2023/10/08 01:38:23;;;;;;;2.67;1.10;;;;;;;;;;6176619;28;20536;-77
2023/10/08 01:41:30;;;;;;;1.73;1.20;;;;;;;;;;6174480;28;20049;-77
2023/10/08 01:44:31;;;;;;;1.42;1.10;;;;;;;;;;6171273;28;20027;-77
2023/10/08 01:47:31;;;;;;;2.75;1.45;;;;;;;;;;6176010;28;20289;-76
2023/10/08 01:50:34;;;;;;;1.48;0.90;;;;;;;;;;6180651;28;20035;-76
2023/10/08 01:53:36;;;;;;;2.15;1.27;;;;;;;;;;6182164;28;20038;-78
2023/10/08 01:56:37;;;;;;;2.13;1.10;;;;;;;;;;6176807;28;20072;-77
2023/10/08 01:59:38;;;;;;;2.20;1.13;;;;;;;;;;6172372;28;20035;-76
2023/10/08 02:02:40;;;;;;;1.77;1.25;;;;;;;;;;6176785;28;20524;-77
2023/10/08 02:05:42;;;;;;;3.30;1.30;;;;;;;;;;6176893;28;20033;-76
2023/10/08 02:08:42;;;;;;;1.42;1.00;;;;;;;;;;6175930;28;20035;-76
2023/10/08 02:11:49;;;;;;;1.67;1.20;;;;;;;;;;6176699;28;20044;-76
2023/10/08 02:14:50;;;;;;;1.58;0.93;;;;;;;;;;6174848;28;20638;-76
2023/10/08 02:17:51;;;;;;;1.63;1.13;;;;;;;;;;6179568;28;20054;-76
2023/10/08 02:20:52;;;;;;;1.98;1.10;;;;;;;;;;6175009;28;20063;-76
2023/10/08 02:23:52;;;;;;;1.42;1.05;;;;;;;;;;6176088;28;20030;-76
2023/10/08 02:26:54;;;;;;;2.40;1.20;;;;;;;;;;6173912;28;20029;-76
2023/10/08 02:29:55;;;;;;;1.60;1.30;;;;;;;;;;6170037;28;20092;-76
2023/10/08 02:32:55;;;;;;;;;;;;;;;;;;6173729;28;20027;-76
2023/10/08 02:35:55;;;;;;;1.73;1.20;;;;;;;;;;6178776;28;19914;-77
2023/10/08 02:38:56;;;;;;;1.97;1.00;;;;;;;;;;6174590;28;20034;-76
2023/10/08 02:41:59;;;;;;;1.60;1.00;;;;;;;;;;6178709;28;20374;-75
2023/10/08 02:45:02;;;;;;;1.65;1.00;;;;;;;;;;6173493;28;20026;-77
2023/10/08 02:48:02;;;;;;;1.70;1.20;;;;;;;;;;6175156;28;20042;-77
2023/10/08 02:51:13;;;;;;;2.05;1.30;;;;;;;;;;6174605;28;20026;-77
2023/10/08 02:54:17;;;;;;;3.10;1.10;;;;;;;;;;6173456;28;20081;-77
2023/10/08 02:57:18;;;;;;;2.13;1.17;;;;;;;;;;6154286;28;20442;-76
2023/10/08 03:00:20;;;;;;;2.28;1.23;;;;;;;;;;6177373;28;20027;-77
2023/10/08 03:03:22;;;;;;;;;;;;;;;;;;6173843;28;20468;-76
2023/10/08 03:06:22;;;;;;;2.10;0.80;;;;;;;;;;6173498;28;19925;-77
2023/10/08 03:09:31;;;;;;;;;;;;;;;;;;6175918;28;20031;-76
2023/10/08 03:12:34;;;;;;;1.52;0.95;;;;;;;;;;6172086;28;19910;-77
2023/10/08 03:15:46;;;;;;;1.83;1.13;;;;;;;;;;6177350;28;20057;-76
2023/10/08 03:18:50;;;;;;;1.30;0.98;;;;;;;;;;6172653;28;20077;-76
2023/10/08 03:21:56;;;;;;;2.13;1.10;;;;;;;;;;6169542;28;20054;-77
2023/10/08 03:24:57;;;;;;;1.80;1.30;;;;;;;;;;6172115;28;20039;-77
2023/10/08 03:27:59;;;;;;;1.80;1.13;;;;;;;;;;6172306;28;20034;-76
2023/10/08 03:31:05;;;;;;;1.83;1.08;;;;;;;;;;6175408;28;20034;-76
2023/10/08 03:34:06;;;;;;;2.17;1.10;;;;;;;;;;6155445;28;20091;-80
2023/10/08 03:37:07;;;;;;;1.92;1.35;;;;;;;;;;6171998;28;20058;-80
2023/10/08 03:40:25;;;;;;;2.00;1.20;;;;;;;;;;6174343;28;20487;-80
2023/10/08 03:43:34;;;;;;;1.67;1.00;;;;;;;;;;6178927;28;20338;-80
2023/10/08 03:46:43;;;;;;;3.58;1.20;;;;;;;;;;6176578;28;20019;-80
2023/10/08 03:49:45;;;;;;;1.73;1.20;;;;;;;;;;6179672;28;20030;-80
2023/10/08 03:52:47;;;;;;;1.38;1.13;;;;;;;;;;6172722;28;20027;-80
2023/10/08 03:55:48;;;;;;;1.17;0.98;;;;;;;;;;6172611;28;20029;-80
2023/10/08 03:58:49;;;;;;;1.58;1.00;;;;;;;;;;6176225;28;20034;-80
2023/10/08 04:01:54;;;;;;;;;;;;;;;;;;6173838;28;20076;-80
2023/10/08 04:04:57;;;;;;;1.13;0.82;;;;;;;;;;6157237;28;19921;-80
2023/10/08 04:14:34;;;;;;;2.25;1.25;;;;;;;;;;6199010;28;20046;-80
2023/10/08 04:17:44;;;;;;;2.15;1.20;;;;;;;;;;6171802;28;20023;-80
2023/10/08 04:21:00;;;;;;;1.65;1.23;;;;;;;;;;6170649;28;20047;-81
2023/10/08 04:24:08;;;;;;;1.73;1.02;;;;;;;;;;6175287;28;20114;-81
2023/10/08 04:27:09;;;;;;;3.05;1.13;;;;;;;;;;6173611;28;20194;-80
2023/10/08 04:30:10;;;;;;;1.95;1.45;;;;;;;;;;6175764;28;20034;-80
2023/10/08 04:33:14;;;;;;;;;;;;;;;;;;6176199;28;20061;-80
2023/10/08 04:36:18;;;;;;;1.23;0.90;;;;;;;;;;6171974;28;19911;-80
2023/10/08 04:39:22;;;;;;;1.75;1.05;;;;;;;;;;6175668;28;20031;-80
2023/10/08 04:42:25;;;;;;;4.60;1.10;;;;;;;;;;6177126;28;20030;-80
2023/10/08 04:45:26;;;;;;;2.25;1.10;;;;;;;;;;6174724;28;20018;-80
2023/10/08 04:48:31;;;;;;;2.47;1.20;;;;;;;;;;6172993;28;20779;-80
2023/10/08 04:51:43;;;;;;;2.10;1.00;;;;;;;;;;6161212;28;20055;-80
2023/10/08 04:54:51;;;;;;;1.92;1.08;;;;;;;;;;6154970;28;20089;-79
2023/10/08 04:57:52;;;;;;;2.00;1.20;;;;;;;;;;6170408;28;21207;-80
2023/10/08 05:00:59;;;;;;;1.48;1.13;;;;;;;;;;6172855;28;20042;-80
2023/10/08 05:07:21;;;;;;;2.40;1.30;;;;;;;;;;6179958;28;20023;-80
2023/10/08 05:13:30;;;;;;;1.50;1.02;;;;;;;;;;6174880;28;20107;-79
2023/10/08 05:16:44;;;;;;;2.08;1.08;;;;;;;;;;6174412;28;20027;-80
2023/10/08 05:26:41;;;;;;;1.40;1.08;;;;;;;;;;6178247;28;20590;-80
2023/10/08 05:30:10;;;;;;;1.63;1.13;;;;;;;;;;6194771;28;20034;-80
2023/10/08 05:33:23;;;;;;;1.67;1.17;;;;;;;;;;6192404;28;20075;-80
2023/10/08 05:39:46;;;;;;;2.42;1.17;;;;;;;;;;6236045;28;20059;-80
2023/10/08 05:42:49;;;;;;;1.35;1.00;;;;;;;;;;6190854;28;20026;-80
2023/10/08 05:46:19;;;;;;;1.92;1.38;;;;;;;;;;6177202;28;20035;-80
2023/10/08 05:52:25;;;;;;;1.70;1.08;;;;;;;;;;6171684;28;20034;-78
2023/10/08 05:55:27;;;;;;;2.33;1.38;;;;;;;;;;6179553;28;20031;-76
2023/10/08 05:58:45;;;;;;;2.83;1.20;;;;;;;;;;6176421;28;20050;-76
2023/10/08 06:01:46;;;;;;;2.22;1.63;;;;;;;;;;6165004;28;20418;-76
2023/10/08 06:08:13;;;;;;;1.70;1.30;;;;;;;;;;6174873;28;19940;-76
2023/10/08 06:11:27;;;;;;;1.30;1.00;;;;;;;;;;6174500;28;20106;-76
2023/10/08 06:14:52;;;;;;;1.48;0.90;;;;;;;;;;6176143;28;20030;-76
2023/10/08 06:17:55;;;;;;;2.25;1.20;;;;;;;;;;6187790;28;20026;-76
2023/10/08 06:21:00;;;;;;;1.48;1.23;;;;;;;;;;6182018;28;20051;-76
2023/10/08 06:24:00;;;;;;;2.67;1.00;;;;;;;;;;6183284;28;20447;-76
2023/10/08 06:27:04;;;;;;;;;;;;;;;;;;6190166;28;20058;-76
2023/10/08 06:30:04;;;;;;;2.65;0.93;;;;;;;;;;6197717;28;20024;-76
2023/10/08 06:33:05;;;;;;;;;;;;;;;;;;6176479;28;20112;-76
2023/10/08 06:39:18;;;;;;;1.90;1.17;;;;;;;;;;6197609;28;20033;-76
2023/10/08 06:42:18;;;;;;;2.88;1.30;;;;;;;;;;6192072;28;20072;-75
2023/10/08 06:45:18;;;;;;;2.50;1.20;;;;;;;;;;6183670;28;20023;-76
2023/10/08 06:48:23;;;;;;;2.00;1.20;;;;;;;;;;6223113;28;20278;-76
2023/10/08 06:51:25;;;;;;;3.63;1.27;;;;;;;;;;6255885;28;20026;-76
2023/10/08 06:54:30;;;;;;;2.03;1.20;;;;;;;;;;6235746;28;20106;-77
2023/10/08 06:57:32;;;;;;;2.25;1.50;;;;;;;;;;6179670;28;20026;-76
2023/10/08 07:00:38;;;;;;;1.88;1.30;;;;;;;;;;6182987;28;20455;-76
2023/10/08 07:03:38;;;;;;;1.50;1.15;;;;;;;;;;6174216;28;20403;-79
2023/10/08 07:06:39;;;;;;;3.47;1.13;;;;;;;;;;6173642;28;20060;-79
2023/10/08 07:09:43;;;;;;;1.90;0.98;;;;;;;;;;6158403;28;20063;-79
2023/10/08 07:12:46;;;;;;;2.40;0.93;;;;;;;;;;6174835;28;20066;-78
2023/10/08 07:15:46;;;;;;;2.75;1.42;;;;;;;;;;6168951;28;20026;-79
2023/10/08 07:19:01;;;;;;;2.37;1.10;;;;;;;;;;6170932;28;20548;-78
2023/10/08 07:22:17;;;;;;;1.88;1.30;;;;;;;;;;6169295;28;20400;-79
2023/10/08 07:25:20;;;;;;;2.10;1.00;;;;;;;;;;6169157;28;20050;-79
2023/10/08 07:28:21;;;;;;;3.03;1.30;;;;;;;;;;6174489;28;20106;-80
2023/10/08 07:31:24;;;;;;;1.90;1.27;;;;;;;;;;6171460;28;20441;-79
2023/10/08 07:37:26;;;;;;;1.37;1.20;;;;;;;;;;6176307;28;20093;-81
2023/10/08 07:40:29;;;;;;;5.22;1.50;;;;;;;;;;6169784;28;20380;-65
2023/10/08 07:43:32;;;;;;;2.70;1.80;;;;;;;;;;6173082;28;20034;-66
2023/10/08 07:46:33;;;;;;;2.90;1.20;;;;;;;;;;6171832;28;20114;-66
2023/10/08 07:49:36;;;;;;;2.17;1.27;;;;;;;;;;6170799;28;20039;-66
2023/10/08 07:52:36;;;;;;;2.15;1.23;;;;;;;;;;6177678;28;20034;-66
2023/10/08 07:55:36;;;;;;;1.57;1.10;;;;;;;;;;6185590;28;20106;-68
2023/10/08 07:58:37;;;;;;;2.17;1.13;;;;;;;;;;6175270;28;20323;-67
2023/10/08 08:01:37;;;;;;;1.60;1.13;;;;;;;;;;6176006;28;20370;-66
2023/10/08 08:04:43;;;;;;;1.70;1.10;;;;;;;;;;6174110;28;20053;-69
2023/10/08 08:07:46;;;;;;;2.40;1.10;;;;;;;;;;6173511;28;20049;-69
2023/10/08 08:10:46;;;;;;;3.00;1.20;;;;;;;;;;6174905;28;20064;-71
2023/10/08 08:13:47;;;;;;;4.15;1.30;;;;;;;;;;6172609;28;20388;-70
2023/10/08 08:16:47;;;;;;;3.03;1.00;;;;;;;;;;6173048;28;20471;-70
2023/10/08 08:19:49;;;;;;;1.63;1.17;;;;;;;;;;6187696;28;20015;-69
2023/10/08 08:22:49;;;;;;;2.00;0.95;;;;;;;;;;6175674;28;20039;-70
2023/10/08 08:26:06;;;;;;;2.40;1.35;;;;;;;;;;6171788;28;20542;-70
2023/10/08 08:29:08;;;;;;;1.80;1.20;;;;;;;;;;6174151;28;20030;-70
2023/10/08 08:32:09;;;;;;;1.65;1.13;;;;;;;;;;6179023;28;20026;-69
2023/10/08 08:35:10;;;;;;;2.45;1.98;;;;;;;;;;6169594;28;20038;-70
2023/10/08 08:38:12;;;;;;;11.25;8.02;;;;;;;;;;6169132;28;20034;-69
2023/10/08 08:41:12;;;;;;;5.70;4.22;;;;;;;;;;6174235;28;20479;-70
2023/10/08 08:44:13;;;;;;;3.37;2.00;;;;;;;;;;6179622;28;20041;-70
2023/10/08 08:47:19;;;;;;;3.05;1.75;;;;;;;;;;6177901;28;20023;-69
2023/10/08 08:50:21;;;;;;;3.47;1.77;;;;;;;;;;6176929;28;20075;-78
2023/10/08 08:53:22;;;;;;;2.55;1.52;;;;;;;;;;6178774;28;20026;-79
2023/10/08 08:56:25;;;;;;;1.40;1.20;;;;;;;;;;6179780;28;20092;-79
2023/10/08 08:59:26;;;;;;;3.95;1.42;;;;;;;;;;6168106;28;20038;-80
2023/10/08 09:02:27;;;;;;;1.92;1.35;;;;;;;;;;6175053;28;20033;-80
2023/10/08 09:05:40;;;;;;;2.05;1.25;;;;;;;;;;6180725;28;21182;-81
2023/10/08 09:08:42;;;;;;;3.03;1.30;;;;;;;;;;6176631;28;20466;-81
2023/10/08 09:11:42;;;;;;;3.05;1.38;;;;;;;;;;6180340;28;20062;-82
2023/10/08 09:14:44;;;;;;;3.28;1.38;;;;;;;;;;6175151;28;20042;-80
2023/10/08 09:17:45;;;;;;;2.20;1.13;;;;;;;;;;6178940;28;20449;-77
2023/10/08 09:20:47;;;;;;;1.30;1.00;;;;;;;;;;6176231;28;20093;-78
2023/10/08 09:23:51;;;;;;;1.55;0.80;;;;;;;;;;6163884;28;20034;-76
2023/10/08 09:26:52;;;;;;;0.95;0.60;;;;;;;;;;6179446;28;20035;-75
2023/10/08 09:29:55;;;;;;;2.85;1.50;;;;;;;;;;6176257;28;20038;-77
2023/10/08 09:32:55;;;;;;;1.17;0.77;;;;;;;;;;6179268;28;20043;-77
2023/10/08 09:35:57;;;;;;;0.90;0.60;;;;;;;;;;6171698;28;20083;-77
2023/10/08 09:39:04;;;;;;;1.38;0.55;;;;;;;;;;6171627;28;20308;-77
2023/10/08 09:42:07;;;;;;;0.63;0.28;;;;;;;;;;6171427;28;20533;-76
2023/10/08 09:45:08;;;;;;;0.22;0.22;;;;;;;;;;6180894;28;20024;-77
2023/10/08 09:48:11;;;;;;;0.40;0.35;;;;;;;;;;6176902;28;20034;-77
2023/10/08 09:51:12;;;;;;;0.50;0.30;;;;;;;;;;6178304;28;20532;-77
2023/10/08 09:54:20;;;;;;;0.75;0.30;;;;;;;;;;6175258;28;20451;-78
2023/10/08 09:57:21;;;;;;;0.60;0.30;;;;;;;;;;6178318;28;20110;-74
2023/10/08 10:00:30;;;;;;;0.30;0.30;;;;;;;;;;6180547;28;20038;-76
2023/10/08 10:03:30;;;;;;;0.20;0.20;;;;;;;;;;6177696;28;20030;-75
2023/10/08 10:06:31;;;;;;;;;;;;;;;;;;6197693;28;20030;-75
2023/10/08 10:09:36;;;;;;;0.20;0.20;;;;;;;;;;6181638;28;20510;-77
2023/10/08 10:12:36;;;;;;;0.20;0.00;;;;;;;;;;6172358;28;20034;-78
2023/10/08 10:15:37;;;;;;;;;;;;;;;;;;6179756;28;20134;-78
2023/10/08 10:18:39;;;;;;;0.20;0.20;;;;;;;;;;6177096;28;19910;-77
2023/10/08 10:21:41;;;;;;;0.17;0.17;;;;;;;;;;6180098;28;20316;-77
2023/10/08 10:24:41;;;;;;;0.20;0.17;;;;;;;;;;6176379;28;20122;-77
2023/10/08 10:27:42;;;;;;;;;;;;;;;;;;6178976;28;20406;-77
2023/10/08 10:30:42;;;;;;;0.88;0.10;;;;;;;;;;6174030;28;20018;-76
2023/10/08 10:33:44;;;;;;;;;;;;;;;;;;6181941;28;20042;-76
2023/10/08 10:36:48;;;;;;;;;;;;;;;;;;6177389;28;20010;-79
2023/10/08 10:39:55;;;;;;;0.55;0.10;;;;;;;;;;6179421;28;19909;-78
2023/10/08 10:43:00;;;;;;;0.10;0.10;;;;;;;;;;6175550;28;20058;-79
2023/10/08 10:49:31;;;;;;;0.17;0.17;;;;;;;;;;6175317;28;20472;-79
2023/10/08 10:52:32;;;;;;;0.70;0.50;;;;;;;;;;6176886;28;20066;-78
2023/10/08 10:55:32;;;;;;;;;;;;;;;;;;6178591;28;20026;-79
2023/10/08 10:58:39;;;;;;;0.30;0.30;;;;;;;;;;6173632;28;19913;-78
2023/10/08 11:01:48;;;;;;;0.28;0.28;;;;;;;;;;6179036;28;20034;-78
2023/10/08 11:04:48;;;;;;;0.30;0.20;;;;;;;;;;6174697;28;20088;-78
2023/10/08 11:07:48;;;;;;;0.30;0.20;;;;;;;;;;6171078;28;20479;-78
2023/10/08 11:10:52;;;;;;;;;;;;;;;;;;6179229;28;20035;-78
2023/10/08 11:13:56;;;;;;;0.10;0.10;;;;;;;;;;6173832;28;19967;-78
2023/10/08 11:16:56;;;;;;;0.10;0.10;;;;;;;;;;6176532;28;20732;-78
2023/10/08 11:19:57;;;;;;;0.10;0.10;;;;;;;;;;6175705;28;20026;-77
2023/10/08 11:23:17;;;;;;;;;;;;;;;;;;6179416;28;21307;-78
2023/10/08 11:26:18;;;;;;;0.10;0.10;;;;;;;;;;6172668;28;20285;-78
2023/10/08 11:29:25;;;;;;;1.83;1.50;;;;;;;;;;6170706;28;20022;-75
2023/10/08 11:32:25;;;;;;;3.13;2.83;;;;;;;;;;6172760;28;20136;-80
2023/10/08 11:35:28;;;;;;;2.17;1.25;;;;;;;;;;6154451;28;20045;-79
2023/10/08 11:38:37;;;;;;;1.85;0.60;;;;;;;;;;6168961;28;20034;-78
2023/10/08 11:41:50;;;;;;;0.30;0.30;;;;;;;;;;6177256;28;20022;-82
2023/10/08 11:44:52;;;;;;;0.32;0.20;;;;;;;;;;6172693;28;20035;-79
2023/10/08 11:47:55;;;;;;;0.70;0.30;;;;;;;;;;6179254;28;20048;-77
2023/10/08 11:51:01;;;;;;;0.30;0.30;;;;;;;;;;6175734;28;20027;-76
2023/10/08 11:54:02;;;;;;;0.17;0.17;;;;;;;;;;6177040;28;20121;-77
2023/10/08 11:57:02;;;;;;;0.10;0.10;;;;;;;;;;6175982;28;20023;-73
2023/10/08 12:00:18;;;;;;;0.10;0.10;;;;;;;;;;6172516;28;20049;-84
2023/10/08 12:03:19;;;;;;;0.40;0.28;;;;;;;;;;6175205;28;20433;-87
2023/10/08 12:06:19;;;;;;;0.10;0.10;;;;;;;;;;6174923;28;20109;-80
2023/10/08 12:09:21;;;;;;;0.10;0.10;;;;;;;;;;6177255;28;20459;-80
2023/10/08 12:12:23;;;;;;;0.10;0.10;;;;;;;;;;6173654;28;20105;-76
2023/10/08 12:15:33;;;;;;;0.10;0.10;;;;;;;;;;6175096;28;20034;-76
2023/10/08 12:18:40;;;;;;;0.10;0.10;;;;;;;;;;6182063;28;20414;-78
2023/10/08 12:21:41;;;;;;;0.30;0.10;;;;;;;;;;6173437;28;20054;-77
2023/10/08 12:24:42;;;;;;;0.10;0.10;;;;;;;;;;6173928;28;20027;-76
2023/10/08 12:27:43;;;;;;;0.10;0.10;;;;;;;;;;6179819;28;20035;-79
2023/10/08 12:30:43;;;;;;;0.30;0.20;;;;;;;;;;6183480;28;20057;-80
2023/10/08 12:33:43;;;;;;;0.15;0.15;;;;;;;;;;6180174;28;20130;-79
2023/10/08 12:36:45;;;;;;;0.13;0.13;;;;;;;;;;6200976;28;20023;-79
2023/10/08 12:40:11;;;;;;;0.40;0.30;;;;;;;;;;6188367;28;20045;-79
2023/10/08 12:43:11;;;;;;;0.55;0.20;;;;;;;;;;6176083;28;23497;-77
2023/10/08 12:46:33;;;;;;;0.50;0.20;;;;;;;;;;6175106;28;20023;-78
2023/10/08 12:49:33;;;;;;;0.20;0.20;;;;;;;;;;6175114;28;20088;-79
2023/10/08 12:52:37;;;;;;;3.30;1.90;;;;;;;;;;6175552;28;20152;-79
2023/10/08 12:55:39;;;;;;;1.30;1.00;;;;;;;;;;6175266;28;20132;-70
2023/10/08 12:58:44;;;;;;;0.50;0.50;;;;;;;;;;6178545;28;20053;-70
2023/10/08 13:01:44;;;;;;;0.50;0.40;;;;;;;;;;6180031;28;20463;-70
2023/10/08 13:04:45;;;;;;;0.30;0.30;;;;;;;;;;6179129;28;20083;-70
2023/10/08 13:07:45;;;;;;;0.80;0.45;;;;;;;;;;6175377;28;20031;-70
2023/10/08 13:10:49;;;;;;;2.77;1.67;;;;;;;;;;6175685;28;20026;-70
2023/10/08 13:13:56;;;;;;;1.48;1.38;;;;;;;;;;6176887;28;20072;-69
2023/10/08 13:16:56;;;;;;;1.13;0.65;;;;;;;;;;6176726;28;20104;-70
2023/10/08 13:19:56;;;;;;;1.27;0.50;;;;;;;;;;6176634;28;20030;-70
2023/10/08 13:22:56;;;;;;;0.77;0.50;;;;;;;;;;6178597;28;20129;-70
2023/10/08 13:26:03;;;;;;;0.60;0.40;;;;;;;;;;6178468;28;20379;-70
2023/10/08 13:29:05;;;;;;;0.65;0.32;;;;;;;;;;6181727;28;20550;-73
2023/10/08 13:32:05;;;;;;;1.77;1.35;;;;;;;;;;6180393;28;20501;-76
2023/10/08 13:35:07;;;;;;;5.03;3.93;;;;;;;;;;6178144;28;20054;-75
2023/10/08 13:38:09;;;;;;;3.17;2.50;;;;;;;;;;6175180;28;20041;-84
2023/10/08 13:41:15;;;;;;;1.95;1.40;;;;;;;;;;6181733;28;20034;-84
2023/10/08 13:44:15;;;;;;;1.17;0.80;;;;;;;;;;6165665;28;20479;-84
2023/10/08 13:47:16;;;;;;;0.87;0.50;;;;;;;;;;6178442;28;20069;-80
2023/10/08 13:50:18;;;;;;;0.93;0.65;;;;;;;;;;6184929;28;20041;-81
2023/10/08 13:53:20;;;;;;;0.77;0.40;;;;;;;;;;6175796;28;20038;-80
2023/10/08 13:56:24;;;;;;;0.85;0.47;;;;;;;;;;6176687;28;20023;-84
2023/10/08 13:59:24;;;;;;;0.55;0.32;;;;;;;;;;6176766;28;20087;-85
2023/10/08 14:02:25;;;;;;;0.40;0.30;;;;;;;;;;6176801;28;20026;-86
2023/10/08 14:05:25;;;;;;;0.43;0.40;;;;;;;;;;6179418;28;20199;-82
2023/10/08 14:08:28;;;;;;;0.83;0.40;;;;;;;;;;6177540;28;20414;-82
2023/10/08 14:11:33;;;;;;;0.35;0.35;;;;;;;;;;6182224;28;20065;-83
2023/10/08 14:14:34;;;;;;;0.50;0.40;;;;;;;;;;6162864;28;20046;-83
2023/10/08 14:17:42;;;;;;;0.38;0.38;;;;;;;;;;6174785;28;20422;-83
2023/10/08 14:20:46;;;;;;;0.30;0.30;;;;;;;;;;6179003;28;20058;-80
2023/10/08 14:23:47;;;;;;;0.60;0.60;;;;;;;;;;6167751;28;20027;-80
2023/10/08 14:26:56;;;;;;;0.90;0.52;;;;;;;;;;6177996;28;20092;-76
2023/10/08 14:30:04;;;;;;;0.40;0.40;;;;;;;;;;6178974;28;20037;-78
2023/10/08 14:33:08;;;;;;;0.50;0.40;;;;;;;;;;6176834;28;20023;-79
2023/10/08 14:42:56;;;;;;;1.20;0.60;;;;;;;;;;6174795;28;20065;-78
2023/10/08 14:45:57;;;;;;;0.60;0.45;;;;;;;;;;6189078;28;21301;-79
2023/10/08 14:48:59;;;;;;;7.38;4.85;;;;;;;;;;6174776;28;20031;-71
2023/10/08 14:51:59;;;;;;;5.90;4.30;;;;;;;;;;6169700;28;20042;-80
2023/10/08 14:54:59;;;;;;;2.50;2.17;;;;;;;;;;6174855;28;20031;-79
2023/10/08 14:58:06;;;;;;;1.93;1.37;;;;;;;;;;6161862;28;20104;-79
2023/10/08 15:01:06;;;;;;;1.48;0.95;;;;;;;;;;6174404;28;20026;-82
2023/10/08 15:04:11;;;;;;;1.38;0.93;;;;;;;;;;6177686;28;20391;-80
2023/10/08 15:07:11;;;;;;;0.82;0.60;;;;;;;;;;6178670;28;20724;-81
2023/10/08 15:10:13;;;;;;;0.90;0.60;;;;;;;;;;6154297;28;20129;-80
2023/10/08 15:13:13;;;;;;;1.65;0.60;;;;;;;;;;6184422;28;20038;-79
2023/10/08 15:16:13;;;;;;;0.80;0.60;;;;;;;;;;6188695;28;20082;-82
2023/10/08 15:19:15;;;;;;;0.63;0.50;;;;;;;;;;6172142;28;20379;-85
2023/10/08 15:22:15;;;;;;;1.10;0.50;;;;;;;;;;6176178;28;20062;-83
2023/10/08 15:25:17;;;;;;;0.77;0.50;;;;;;;;;;6175217;28;20089;-82
2023/10/08 15:28:18;;;;;;;0.70;0.50;;;;;;;;;;6171357;28;20027;-83
2023/10/08 15:31:19;;;;;;;0.45;0.40;;;;;;;;;;6156465;28;20038;-84
2023/10/08 15:34:19;;;;;;;;;;;;;;;;;;6157990;28;20099;-82
2023/10/08 15:37:19;;;;;;;0.40;0.40;;;;;;;;;;6171706;28;20305;-82
2023/10/08 15:40:20;;;;;;;1.17;0.40;;;;;;;;;;6180547;28;20075;-84
2023/10/08 15:43:20;;;;;;;0.40;0.40;;;;;;;;;;6175705;28;20092;-84
2023/10/08 15:46:20;;;;;;;0.50;0.50;;;;;;;;;;6177715;28;20026;-82
2023/10/08 15:49:20;;;;;;;0.40;0.40;;;;;;;;;;6167881;28;20030;-83
2023/10/08 15:52:22;;;;;;;0.53;0.50;;;;;;;;;;6178469;28;20034;-83
2023/10/08 15:55:23;;;;;;;0.47;0.43;;;;;;;;;;6159973;28;20129;-83
2023/10/08 15:58:23;;;;;;;0.35;0.30;;;;;;;;;;6171820;28;20029;-85
2023/10/08 16:01:25;;;;;;;0.50;0.50;;;;;;;;;;6185176;28;20037;-83
2023/10/08 16:04:28;;;;;;;0.70;0.57;;;;;;;;;;6187465;28;20031;-82
2023/10/08 16:07:29;;;;;;;0.47;0.40;;;;;;;;;;6178610;28;20033;-83
2023/10/08 16:10:30;;;;;;;0.50;0.50;;;;;;;;;;6185719;28;20034;-82
2023/10/08 16:13:30;;;;;;;0.60;0.43;;;;;;;;;;6198197;28;20039;-83
2023/10/08 16:16:30;;;;;;;1.67;0.50;;;;;;;;;;6179775;28;20054;-81
2023/10/08 16:19:32;;;;;;;1.00;0.50;;;;;;;;;;6188677;28;20022;-83
2023/10/08 16:22:33;;;;;;;1.98;1.25;;;;;;;;;;6180097;28;20058;-83
2023/10/08 16:25:33;;;;;;;0.80;0.80;;;;;;;;;;6193724;28;20028;-81
2023/10/08 16:28:34;;;;;;;1.70;0.53;;;;;;;;;;6166866;28;20464;-81
2023/10/08 16:31:40;;;;;;;2.00;0.90;;;;;;;;;;6170473;28;20023;-80
2023/10/08 16:34:42;;;;;;;0.65;0.60;;;;;;;;;;6173987;28;20019;-80
2023/10/08 16:37:45;;;;;;;0.73;0.40;;;;;;;;;;6178713;28;20068;-81
2023/10/08 16:40:45;;;;;;;1.00;0.60;;;;;;;;;;6181031;28;20023;-80
2023/10/08 16:43:45;;;;;;;0.80;0.50;;;;;;;;;;6171575;28;20434;-80
2023/10/08 16:46:46;;;;;;;0.43;0.40;;;;;;;;;;6187659;28;20491;-80
2023/10/08 16:49:46;;;;;;;0.40;0.40;;;;;;;;;;6194298;28;20113;-83
2023/10/08 16:52:48;;;;;;;0.90;0.60;;;;;;;;;;6182838;28;20030;-80
2023/10/08 16:55:49;;;;;;;1.10;0.50;;;;;;;;;;6193705;28;20022;-81
2023/10/08 16:58:50;;;;;;;0.55;0.50;;;;;;;;;;6178307;28;20026;-81
2023/10/08 17:01:50;;;;;;;0.60;0.50;;;;;;;;;;6185700;28;20443;-80
2023/10/08 17:04:50;;;;;;;0.50;0.40;;;;;;;;;;6204989;28;20486;-81
2023/10/08 17:07:52;;;;;;;0.47;0.43;;;;;;;;;;6222400;28;20387;-81
2023/10/08 17:10:52;;;;;;;0.47;0.45;;;;;;;;;;6198966;28;20030;-81
2023/10/08 17:13:53;;;;;;;0.73;0.40;;;;;;;;;;6188640;28;20034;-81
2023/10/08 17:16:53;;;;;;;0.40;0.40;;;;;;;;;;6195887;28;20049;-80
2023/10/08 17:19:53;;;;;;;0.40;0.40;;;;;;;;;;6197198;28;20047;-81
2023/10/08 17:22:53;;;;;;;0.30;0.30;;;;;;;;;;6185025;28;20062;-80
2023/10/08 17:25:54;;;;;;;0.77;0.50;;;;;;;;;;6194983;28;20022;-82
2023/10/08 17:28:54;;;;;;;0.70;0.50;;;;;;;;;;6189589;28;20127;-82
2023/10/08 17:31:56;;;;;;;0.90;0.60;;;;;;;;;;6188810;28;20038;-81
2023/10/08 17:34:56;;;;;;;0.52;0.40;;;;;;;;;;6198299;28;20030;-82
2023/10/08 17:37:56;;;;;;;0.80;0.50;;;;;;;;;;6167387;28;20469;-82
2023/10/08 17:40:56;;;;;;;1.40;1.10;;;;;;;;;;6184019;28;20027;-81
2023/10/08 17:43:57;;;;;;;2.53;1.80;;;;;;;;;;6185722;28;20037;-81
2023/10/08 17:46:57;;;;;;;1.85;1.10;;;;;;;;;;6194121;28;20022;-82
2023/10/08 17:49:58;;;;;;;1.37;0.60;;;;;;;;;;6178663;28;20471;-83
2023/10/08 17:53:00;;;;;;;0.73;0.63;;;;;;;;;;6182791;28;20033;-82
2023/10/08 17:56:01;;;;;;;0.70;0.55;;;;;;;;;;6179986;28;20113;-81
2023/10/08 17:59:01;;;;;;;0.67;0.50;;;;;;;;;;6175921;28;20031;-81
2023/10/08 18:02:01;;;;;;;1.30;0.57;;;;;;;;;;6176122;28;20493;-82
2023/10/08 18:05:04;;;;;;;0.47;0.37;;;;;;;;;;6194151;28;20034;-81
2023/10/08 18:08:06;;;;;;;0.32;0.30;;;;;;;;;;6177940;28;20459;-82
2023/10/08 18:11:07;;;;;;;0.60;0.40;;;;;;;;;;6173193;28;20066;-82
2023/10/08 18:14:14;;;;;;;0.63;0.43;;;;;;;;;;6182653;28;20455;-82
2023/10/08 18:17:14;;;;;;;0.50;0.40;;;;;;;;;;6180293;28;20062;-81
2023/10/08 18:20:33;;;;;;;0.50;0.43;;;;;;;;;;6201115;28;20098;-82
2023/10/08 18:23:35;;;;;;;0.50;0.40;;;;;;;;;;6172799;28;20069;-82
2023/10/08 18:26:41;;;;;;;1.63;0.70;;;;;;;;;;6173281;28;20117;-82
2023/10/08 18:29:41;;;;;;;1.48;0.60;;;;;;;;;;6186908;28;20022;-82
2023/10/08 18:32:43;;;;;;;1.10;0.40;;;;;;;;;;6187812;28;20505;-82
2023/10/08 18:35:43;;;;;;;0.40;0.40;;;;;;;;;;6196876;28;20033;-83
2023/10/08 18:38:43;;;;;;;0.70;0.50;;;;;;;;;;6191188;28;20352;-83
2023/10/08 18:41:44;;;;;;;0.70;0.40;;;;;;;;;;6177977;28;20022;-82
2023/10/08 18:44:44;;;;;;;4.32;1.38;;;;;;;;;;6197973;28;20029;-82
2023/10/08 18:47:44;;;;;;;1.30;0.90;;;;;;;;;;6155523;28;20034;-82
2023/10/08 18:50:45;;;;;;;0.87;0.60;;;;;;;;;;6182721;28;20026;-82
2023/10/08 18:53:45;;;;;;;0.70;0.60;;;;;;;;;;6174655;28;20061;-83
2023/10/08 18:56:46;;;;;;;0.73;0.52;;;;;;;;;;6176501;28;20031;-83
2023/10/08 18:59:46;;;;;;;0.80;0.40;;;;;;;;;;6180265;28;20042;-83
2023/10/08 19:02:49;;;;;;;1.43;0.47;;;;;;;;;;6180603;28;20023;-83
2023/10/08 19:05:49;;;;;;;0.50;0.30;;;;;;;;;;6175088;28;20034;-83
2023/10/08 19:08:49;;;;;;;0.40;0.40;;;;;;;;;;6182094;28;20030;-84
2023/10/08 19:11:49;;;;;;;0.40;0.40;;;;;;;;;;6174793;28;20038;-83